Time;durP1;ratioP1;P1;durP2;ratioP2;P2;SDS_P1;SDS_P2;PMS_P1;PMS_P2;Temp;Humidity;BMP_temperature;BMP_pressure;BME280_temperature;BME280_humidity;BME280_pressure;Samples;Min_cycle;Max_cycle;Signal;HPM_P1;HPM_P2
2024/02/16 00:00:34;;;;;;;2.55;1.50;;;8.70;97.70;;;;;;2044311;28;20235;-77
2024/02/16 00:01:36;;;;;;;2.07;1.50;;;8.70;97.80;;;;;;2048773;28;20241;-77
2024/02/16 00:02:38;;;;;;;2.83;1.67;;;8.80;97.90;;;;;;2056858;28;20318;-77
2024/02/16 00:03:39;;;;;;;3.88;1.70;;;8.80;97.60;;;;;;2049314;28;20235;-77
2024/02/16 00:04:40;;;;;;;2.25;1.60;;;8.80;97.70;;;;;;2045704;28;20420;-77
2024/02/16 00:05:41;;;;;;;4.47;1.90;;;8.70;97.70;;;;;;2047304;28;20280;-77
2024/02/16 00:06:41;;;;;;;2.43;1.63;;;8.70;97.60;;;;;;2059502;28;20229;-77
2024/02/16 00:07:42;;;;;;;2.00;1.53;;;8.70;97.70;;;;;;2047238;28;20282;-77
2024/02/16 00:08:43;;;;;;;3.50;1.57;;;8.70;97.70;;;;;;2040693;29;20215;-77
2024/02/16 00:09:43;;;;;;;1.60;1.50;;;8.70;97.80;;;;;;2048542;28;20223;-77
2024/02/16 00:10:44;;;;;;;1.60;1.37;;;8.70;97.80;;;;;;2052198;28;20735;-77
2024/02/16 00:11:45;;;;;;;2.07;1.87;;;8.70;97.80;;;;;;2048053;28;20223;-77
2024/02/16 00:12:46;;;;;;;2.07;1.83;;;8.70;97.80;;;;;;2051968;28;20215;-77
2024/02/16 00:13:46;;;;;;;5.23;1.77;;;8.70;97.90;;;;;;2037060;29;20859;-77
2024/02/16 00:14:47;;;;;;;2.73;1.90;;;8.60;98.10;;;;;;2053996;28;20219;-77
2024/02/16 00:15:48;;;;;;;1.93;1.60;;;8.60;98.10;;;;;;2060685;28;20225;-77
2024/02/16 00:16:49;;;;;;;5.53;1.80;;;8.50;98.10;;;;;;2038411;28;20320;-77
2024/02/16 00:17:49;;;;;;;3.17;1.90;;;8.50;98.20;;;;;;2054712;28;20232;-75
2024/02/16 00:18:50;;;;;;;3.53;1.83;;;8.50;98.20;;;;;;2049343;28;20740;-76
2024/02/16 00:19:51;;;;;;;1.77;1.60;;;8.60;98.30;;;;;;2042297;29;20286;-76
2024/02/16 00:20:52;;;;;;;2.30;1.70;;;8.50;98.30;;;;;;2046596;28;20223;-76
2024/02/16 00:21:52;;;;;;;2.00;1.40;;;8.40;98.40;;;;;;2046446;29;20219;-75
2024/02/16 00:22:53;;;;;;;2.10;1.90;;;8.40;98.30;;;;;;2038089;29;20729;-74
2024/02/16 00:23:54;;;;;;;2.27;1.63;;;8.40;98.50;;;;;;2039813;28;20224;-74
2024/02/16 00:24:55;;;;;;;2.28;1.70;;;8.40;98.60;;;;;;2046492;28;20226;-76
2024/02/16 00:25:56;;;;;;;2.90;1.57;;;8.40;98.60;;;;;;2044414;28;20234;-76
2024/02/16 00:26:56;;;;;;;2.77;1.93;;;8.40;98.70;;;;;;2053824;28;20226;-76
2024/02/16 00:27:57;;;;;;;4.00;1.83;;;8.40;98.60;;;;;;2054056;28;20229;-76
2024/02/16 00:28:58;;;;;;;2.90;1.63;;;8.50;98.30;;;;;;2047744;28;20226;-76
2024/02/16 00:29:59;;;;;;;2.90;1.60;;;8.50;98.30;;;;;;2047440;28;20227;-76
2024/02/16 00:30:59;;;;;;;2.17;1.50;;;8.50;98.20;;;;;;2038449;29;20238;-76
2024/02/16 00:32:00;;;;;;;1.53;1.37;;;8.60;98.20;;;;;;2059335;28;20379;-75
2024/02/16 00:33:01;;;;;;;2.00;1.67;;;8.60;98.00;;;;;;2048750;28;20222;-74
2024/02/16 00:34:01;;;;;;;2.30;1.53;;;8.60;97.90;;;;;;2053294;28;20645;-75
2024/02/16 00:35:03;;;;;;;2.30;1.40;;;8.60;97.90;;;;;;2052319;28;20210;-75
2024/02/16 00:36:04;;;;;;;2.10;1.48;;;8.60;98.10;;;;;;2059901;28;20190;-76
2024/02/16 00:37:09;;;;;;;1.60;1.33;;;8.60;98.00;;;;;;2050242;28;20656;-74
2024/02/16 00:38:09;;;;;;;3.15;1.40;;;8.60;97.60;;;;;;2051030;28;20219;-76
2024/02/16 00:39:10;;;;;;;2.20;1.73;;;8.60;97.50;;;;;;2050481;28;20191;-74
2024/02/16 00:40:11;;;;;;;2.90;1.60;;;8.60;97.50;;;;;;2045845;28;20184;-75
2024/02/16 00:41:22;;;;;;;3.15;1.52;;;8.70;97.70;;;;;;2045045;28;20623;-77
2024/02/16 00:42:23;;;;;;;3.05;1.42;;;8.70;97.80;;;;;;2043901;28;20331;-76
2024/02/16 00:43:24;;;;;;;2.70;1.40;;;8.60;98.30;;;;;;2038701;29;20266;-76
2024/02/16 00:44:24;;;;;;;1.97;1.40;;;8.60;97.80;;;;;;2053934;28;20230;-78
2024/02/16 00:45:25;;;;;;;1.80;1.57;;;8.60;97.80;;;;;;2046052;28;20232;-77
2024/02/16 00:46:26;;;;;;;1.67;1.43;;;8.70;97.90;;;;;;2041870;29;20701;-76
2024/02/16 00:47:27;;;;;;;1.73;1.50;;;8.60;98.40;;;;;;2046956;28;20232;-77
2024/02/16 00:48:27;;;;;;;1.63;1.25;;;8.50;98.60;;;;;;2046327;28;20227;-76
2024/02/16 00:49:28;;;;;;;3.33;2.00;;;8.50;98.90;;;;;;2050156;28;20233;-76
2024/02/16 00:50:29;;;;;;;2.53;1.53;;;8.50;98.70;;;;;;2050134;28;20708;-77
2024/02/16 00:51:30;;;;;;;1.53;1.23;;;8.50;98.50;;;;;;2050585;28;20243;-78
2024/02/16 00:52:30;;;;;;;3.70;1.37;;;8.60;98.50;;;;;;2050149;28;20226;-77
2024/02/16 00:53:31;;;;;;;1.90;1.60;;;8.50;98.50;;;;;;2050293;28;20258;-77
2024/02/16 00:54:32;;;;;;;2.70;1.63;;;8.60;98.60;;;;;;2054572;28;20265;-77
2024/02/16 00:55:32;;;;;;;1.73;1.13;;;8.90;98.60;;;;;;2038583;29;20267;-78
2024/02/16 00:56:33;;;;;;;1.80;1.63;;;8.70;98.40;;;;;;2042692;29;20318;-78
2024/02/16 00:57:34;;;;;;;1.57;1.33;;;8.70;98.30;;;;;;2049392;28;20380;-77
2024/02/16 00:58:36;;;;;;;1.70;1.55;;;8.70;98.10;;;;;;2058921;28;20315;-78
2024/02/16 00:59:36;;;;;;;3.50;1.20;;;8.70;98.00;;;;;;2054737;28;20313;-78
2024/02/16 01:00:37;;;;;;;1.30;1.10;;;8.60;98.30;;;;;;2047068;28;20227;-77
2024/02/16 01:01:38;;;;;;;1.33;1.23;;;8.60;98.70;;;;;;2060069;28;20773;-77
2024/02/16 01:02:39;;;;;;;1.53;1.10;;;8.60;98.80;;;;;;2052338;28;20281;-77
2024/02/16 01:03:39;;;;;;;2.17;1.37;;;8.60;99.20;;;;;;2046209;28;20634;-78
2024/02/16 01:04:40;;;;;;;1.67;1.30;;;8.40;99.50;;;;;;2054812;28;20261;-77
2024/02/16 01:05:41;;;;;;;1.50;1.20;;;8.40;99.90;;;;;;2046788;28;20773;-78
2024/02/16 01:06:42;;;;;;;3.47;1.60;;;8.30;99.80;;;;;;2038440;28;20327;-78
2024/02/16 01:07:42;;;;;;;1.67;1.57;;;8.30;99.80;;;;;;2046081;28;20302;-77
2024/02/16 01:08:43;;;;;;;1.43;1.33;;;8.30;99.90;;;;;;2046452;28;20222;-77
2024/02/16 01:09:44;;;;;;;2.37;1.73;;;8.40;99.70;;;;;;2054281;28;20238;-77
2024/02/16 01:10:44;;;;;;;2.73;1.77;;;8.30;99.60;;;;;;2054257;28;20227;-76
2024/02/16 01:11:45;;;;;;;1.53;1.30;;;8.30;99.50;;;;;;2047697;28;20704;-76
2024/02/16 01:12:46;;;;;;;2.43;1.73;;;8.50;99.50;;;;;;2043809;29;20266;-76
2024/02/16 01:13:47;;;;;;;2.00;1.67;;;8.40;99.40;;;;;;2053948;28;20229;-76
2024/02/16 01:14:47;;;;;;;2.97;1.63;;;8.40;99.50;;;;;;2056376;28;20233;-76
2024/02/16 01:15:48;;;;;;;2.33;1.50;;;8.40;99.20;;;;;;2062141;28;20244;-76
2024/02/16 01:16:49;;;;;;;3.60;1.50;;;8.40;99.20;;;;;;2061653;28;20226;-76
2024/02/16 01:17:50;;;;;;;1.70;1.30;;;8.40;99.10;;;;;;2053513;28;20747;-76
2024/02/16 01:18:50;;;;;;;1.50;1.40;;;8.40;99.20;;;;;;2046379;28;20298;-76
2024/02/16 01:19:51;;;;;;;2.20;1.63;;;8.40;99.50;;;;;;2046055;28;20230;-76
2024/02/16 01:20:52;;;;;;;1.97;1.40;;;8.30;99.80;;;;;;2054323;28;20230;-76
2024/02/16 01:21:57;;;;;;;2.40;1.50;;;8.30;99.80;;;;;;2058072;28;20639;-77
2024/02/16 01:22:58;;;;;;;1.88;1.60;;;8.30;99.40;;;;;;2052149;28;20550;-76
2024/02/16 01:24:00;;;;;;;2.33;1.50;;;8.20;99.50;;;;;;2059814;28;20707;-76
2024/02/16 01:25:01;;;;;;;1.50;1.40;;;8.20;99.50;;;;;;2052611;28;20227;-76
2024/02/16 01:26:02;;;;;;;1.97;1.60;;;8.20;99.70;;;;;;2054279;28;20220;-77
2024/02/16 01:27:03;;;;;;;2.17;1.57;;;8.30;99.60;;;;;;2053796;28;20268;-76
2024/02/16 01:28:04;;;;;;;2.40;1.40;;;8.30;99.40;;;;;;2053883;28;20216;-76
2024/02/16 01:29:05;;;;;;;2.28;1.70;;;8.30;99.30;;;;;;2050073;28;20188;-76
2024/02/16 01:30:06;;;;;;;1.48;1.27;;;8.40;99.30;;;;;;2046263;28;20722;-76
2024/02/16 01:31:09;;;;;;;1.75;1.48;;;8.40;99.20;;;;;;2045993;28;20226;-76
2024/02/16 01:32:10;;;;;;;2.90;1.65;;;8.40;99.20;;;;;;2052195;28;20183;-76
2024/02/16 01:33:11;;;;;;;2.70;1.60;;;8.50;99.20;;;;;;2042635;28;20666;-77
2024/02/16 01:34:12;;;;;;;1.90;1.50;;;8.40;99.10;;;;;;2049650;28;20188;-76
2024/02/16 01:35:14;;;;;;;2.97;1.50;;;8.40;99.10;;;;;;2039902;29;20207;-76
2024/02/16 01:36:15;;;;;;;2.15;1.67;;;8.40;99.30;;;;;;2046552;28;20194;-77
2024/02/16 01:37:16;;;;;;;2.03;1.50;;;8.40;99.30;;;;;;2054818;28;20723;-77
2024/02/16 01:38:16;;;;;;;1.83;1.43;;;8.30;99.50;;;;;;2053070;28;20185;-77
2024/02/16 01:39:17;;;;;;;2.47;1.50;;;8.30;99.60;;;;;;2059192;28;20181;-77
2024/02/16 01:40:18;;;;;;;3.20;1.60;;;8.30;99.50;;;;;;2040536;28;20187;-78
2024/02/16 01:41:19;;;;;;;2.37;1.70;;;8.20;99.50;;;;;;2052894;28;20188;-77
2024/02/16 01:42:19;;;;;;;1.43;1.33;;;8.30;99.40;;;;;;2046681;28;20695;-77
2024/02/16 01:43:21;;;;;;;2.37;1.63;;;8.40;99.30;;;;;;2046026;28;20290;-77
2024/02/16 01:44:22;;;;;;;1.88;1.55;;;8.40;99.20;;;;;;2053837;28;20716;-77
2024/02/16 01:45:22;;;;;;;2.23;1.80;;;8.40;99.10;;;;;;2053919;28;20239;-77
2024/02/16 01:46:23;;;;;;;2.17;1.40;;;8.40;99.60;;;;;;2054761;28;20715;-77
2024/02/16 01:47:24;;;;;;;1.90;1.40;;;8.50;99.00;;;;;;2054592;28;20233;-77
2024/02/16 01:48:25;;;;;;;3.30;1.50;;;8.30;98.90;;;;;;2046833;28;20268;-77
2024/02/16 01:49:26;;;;;;;2.00;1.58;;;8.40;98.60;;;;;;2039208;28;20682;-76
2024/02/16 01:50:29;;;;;;;2.70;1.37;;;8.40;98.30;;;;;;2049781;28;20297;-77
2024/02/16 01:51:30;;;;;;;2.72;1.27;;;8.40;98.50;;;;;;2055788;28;20246;-77
2024/02/16 01:52:35;;;;;;;2.10;1.40;;;8.40;98.50;;;;;;2057728;28;20226;-77
2024/02/16 01:53:37;;;;;;;2.10;1.67;;;8.40;99.00;;;;;;2050185;28;20226;-77
2024/02/16 01:54:38;;;;;;;2.10;1.40;;;8.40;98.40;;;;;;2041308;28;20755;-77
2024/02/16 01:55:38;;;;;;;2.80;1.80;;;8.40;98.50;;;;;;2050229;28;20277;-77
2024/02/16 01:56:39;;;;;;;1.97;1.40;;;8.40;99.20;;;;;;2055869;28;20221;-77
2024/02/16 01:57:42;;;;;;;4.77;1.50;;;8.40;98.80;;;;;;2046746;28;20231;-77
2024/02/16 01:58:43;;;;;;;2.03;1.52;;;8.50;98.90;;;;;;2042318;28;20212;-76
2024/02/16 01:59:45;;;;;;;3.63;1.40;;;8.50;98.70;;;;;;2047673;28;20234;-77
2024/02/16 02:00:46;;;;;;;1.98;1.40;;;8.50;98.50;;;;;;2037693;28;20232;-77
2024/02/16 02:01:47;;;;;;;3.00;1.33;;;8.60;98.60;;;;;;2045647;28;20275;-76
2024/02/16 02:02:48;;;;;;;1.53;1.43;;;8.60;98.60;;;;;;2050447;28;20230;-77
2024/02/16 02:03:49;;;;;;;3.95;1.80;;;8.60;98.50;;;;;;2051213;28;20468;-77
2024/02/16 02:04:49;;;;;;;2.53;1.43;;;8.60;98.40;;;;;;2053013;28;20229;-76
2024/02/16 02:05:54;;;;;;;2.10;1.30;;;8.60;98.40;;;;;;2044558;28;20235;-75
2024/02/16 02:06:55;;;;;;;3.08;1.70;;;8.60;98.50;;;;;;2046398;28;20298;-77
2024/02/16 02:07:55;;;;;;;2.03;1.30;;;8.50;98.40;;;;;;2052698;28;20226;-77
2024/02/16 02:08:56;;;;;;;1.57;1.30;;;8.50;98.50;;;;;;2037702;28;20223;-78
2024/02/16 02:09:57;;;;;;;2.23;1.40;;;8.40;98.70;;;;;;2044594;29;20693;-78
2024/02/16 02:10:57;;;;;;;2.60;1.57;;;8.40;99.20;;;;;;2049471;28;20597;-76
2024/02/16 02:11:58;;;;;;;4.90;1.50;;;8.40;99.00;;;;;;2060285;28;20273;-76
2024/02/16 02:12:59;;;;;;;3.57;1.47;;;8.30;99.10;;;;;;2055475;28;20231;-76
2024/02/16 02:13:59;;;;;;;3.30;1.57;;;8.30;99.20;;;;;;2053884;28;20688;-76
2024/02/16 02:15:00;;;;;;;1.83;1.50;;;8.20;99.50;;;;;;2051251;28;20252;-77
2024/02/16 02:16:04;;;;;;;2.07;1.47;;;8.20;99.50;;;;;;2045558;28;20290;-76
2024/02/16 02:17:05;;;;;;;1.40;1.30;;;8.20;99.60;;;;;;2037822;29;20192;-76
2024/02/16 02:18:06;;;;;;;1.80;1.33;;;8.20;99.50;;;;;;2038042;29;20720;-76
2024/02/16 02:19:06;;;;;;;2.83;1.63;;;8.20;99.50;;;;;;2051574;28;20195;-78
2024/02/16 02:20:10;;;;;;;1.50;1.40;;;8.20;99.90;;;;;;2053639;28;20221;-77
2024/02/16 02:21:13;;;;;;;1.58;1.48;;;8.10;99.90;;;;;;2053608;28;20623;-76
2024/02/16 02:22:18;;;;;;;2.42;1.45;;;8.10;99.90;;;;;;2052941;28;20200;-75
2024/02/16 02:23:19;;;;;;;2.33;1.52;;;8.00;99.90;;;;;;2048958;28;20191;-77
2024/02/16 02:24:21;;;;;;;2.47;1.38;;;8.00;99.90;;;;;;2046582;28;20707;-77
2024/02/16 02:25:21;;;;;;;2.38;1.33;;;8.00;99.90;;;;;;2051544;28;20262;-77
2024/02/16 02:26:22;;;;;;;3.63;1.20;;;8.00;99.90;;;;;;2051562;28;20242;-76
2024/02/16 02:27:23;;;;;;;1.73;1.30;;;8.00;99.90;;;;;;2043930;28;20236;-77
2024/02/16 02:28:24;;;;;;;2.33;1.50;;;8.00;99.90;;;;;;2031539;29;20247;-76
2024/02/16 02:29:25;;;;;;;2.95;1.42;;;8.10;99.90;;;;;;2042642;28;20744;-76
2024/02/16 02:30:25;;;;;;;2.03;1.50;;;8.00;99.90;;;;;;2032134;29;20301;-76
2024/02/16 02:31:26;;;;;;;2.27;1.80;;;8.00;99.90;;;;;;2042191;28;20238;-76
2024/02/16 02:32:28;;;;;;;2.07;1.60;;;8.00;99.90;;;;;;2042912;28;20238;-76
2024/02/16 02:33:28;;;;;;;2.25;1.50;;;8.00;99.90;;;;;;2032078;28;20236;-76
2024/02/16 02:34:29;;;;;;;1.60;1.40;;;8.00;99.90;;;;;;2040170;29;20235;-76
2024/02/16 02:35:30;;;;;;;2.10;1.37;;;8.00;99.90;;;;;;2050709;28;20274;-77
2024/02/16 02:36:32;;;;;;;2.53;1.73;;;8.00;99.90;;;;;;2057730;28;20249;-76
2024/02/16 02:37:33;;;;;;;1.77;1.40;;;7.90;99.90;;;;;;2047248;28;20277;-78
2024/02/16 02:38:34;;;;;;;1.87;1.37;;;7.90;99.90;;;;;;2042663;28;20275;-77
2024/02/16 02:39:35;;;;;;;1.67;1.30;;;7.90;99.90;;;;;;2051244;28;20231;-76
2024/02/16 02:40:36;;;;;;;1.73;1.47;;;8.00;99.90;;;;;;2045886;28;20289;-77
2024/02/16 02:41:37;;;;;;;1.63;1.30;;;8.00;99.90;;;;;;2045068;28;20318;-76
2024/02/16 02:42:38;;;;;;;2.23;1.47;;;7.90;99.90;;;;;;2053914;28;20234;-76
2024/02/16 02:43:39;;;;;;;2.17;1.63;;;7.90;99.90;;;;;;2055395;28;20311;-77
2024/02/16 02:44:40;;;;;;;1.60;1.23;;;8.00;99.90;;;;;;2052879;28;20246;-76
2024/02/16 02:45:40;;;;;;;4.72;1.60;;;8.00;99.90;;;;;;2052432;28;20265;-76
2024/02/16 02:46:41;;;;;;;6.63;1.63;;;7.90;99.90;;;;;;2054459;28;20254;-77
2024/02/16 02:47:43;;;;;;;2.37;1.60;;;8.00;99.90;;;;;;2047123;28;20285;-76
2024/02/16 02:48:45;;;;;;;2.42;1.30;;;7.90;99.90;;;;;;2052673;28;20234;-76
2024/02/16 02:49:45;;;;;;;2.58;1.85;;;7.90;99.90;;;;;;2053532;28;20222;-77
2024/02/16 02:50:46;;;;;;;2.87;1.50;;;7.90;99.90;;;;;;2050126;28;20777;-76
2024/02/16 02:51:47;;;;;;;1.77;1.50;;;7.90;99.90;;;;;;2044818;29;20299;-76
2024/02/16 02:52:47;;;;;;;1.77;1.20;;;7.90;99.90;;;;;;2036481;29;20299;-76
2024/02/16 02:53:48;;;;;;;2.60;1.30;;;7.90;99.90;;;;;;2055172;28;20301;-77
2024/02/16 02:54:49;;;;;;;1.43;1.10;;;7.90;99.90;;;;;;2056544;28;20313;-77
2024/02/16 02:55:49;;;;;;;1.43;1.13;;;7.90;99.90;;;;;;2047075;28;20234;-76
2024/02/16 02:56:50;;;;;;;1.50;1.20;;;7.90;99.90;;;;;;2046519;28;21017;-76
2024/02/16 02:57:51;;;;;;;2.17;1.37;;;7.90;99.90;;;;;;2045576;28;20250;-76
2024/02/16 02:58:52;;;;;;;1.50;1.40;;;8.00;99.90;;;;;;2040177;28;20255;-77
2024/02/16 02:59:52;;;;;;;2.23;1.27;;;8.00;99.90;;;;;;2042373;29;20227;-77
2024/02/16 03:00:54;;;;;;;2.40;1.20;;;7.90;99.90;;;;;;2046135;28;20227;-77
2024/02/16 03:01:54;;;;;;;2.22;1.40;;;7.80;99.90;;;;;;2053501;28;20230;-76
2024/02/16 03:02:55;;;;;;;3.83;1.57;;;7.90;99.90;;;;;;2040927;28;20333;-77
2024/02/16 03:03:56;;;;;;;2.73;1.10;;;7.80;99.90;;;;;;2061115;28;20324;-76
2024/02/16 03:04:56;;;;;;;1.77;1.20;;;7.90;99.90;;;;;;2049806;28;20821;-76
2024/02/16 03:05:57;;;;;;;1.10;1.00;;;7.90;99.90;;;;;;2043478;29;20245;-76
2024/02/16 03:06:58;;;;;;;1.30;1.20;;;7.90;99.90;;;;;;2051576;28;20663;-76
2024/02/16 03:08:01;;;;;;;1.87;1.37;;;7.90;99.90;;;;;;2045080;28;20226;-77
2024/02/16 03:09:01;;;;;;;2.05;1.20;;;8.00;99.90;;;;;;2037646;28;20624;-76
2024/02/16 03:10:03;;;;;;;1.73;1.27;;;8.00;99.90;;;;;;2039733;28;20231;-76
2024/02/16 03:11:04;;;;;;;1.65;1.27;;;7.90;99.90;;;;;;2052396;28;20258;-76
2024/02/16 03:12:05;;;;;;;1.53;1.17;;;7.90;99.90;;;;;;2053605;28;20218;-76
2024/02/16 03:13:06;;;;;;;1.60;1.20;;;7.90;99.90;;;;;;2061071;28;20428;-77
2024/02/16 03:14:07;;;;;;;1.45;1.00;;;7.90;99.90;;;;;;2046837;28;20210;-76
2024/02/16 03:15:08;;;;;;;2.15;1.20;;;8.00;99.90;;;;;;2046740;28;20200;-76
2024/02/16 03:16:09;;;;;;;1.97;1.20;;;8.00;99.90;;;;;;2059990;28;20203;-77
2024/02/16 03:17:10;;;;;;;2.13;1.10;;;8.00;99.90;;;;;;2061540;28;20185;-76
2024/02/16 03:18:11;;;;;;;1.80;1.33;;;8.00;99.90;;;;;;2045779;28;20259;-77
2024/02/16 03:19:11;;;;;;;1.87;1.10;;;8.10;99.90;;;;;;2045991;28;20250;-75
2024/02/16 03:20:12;;;;;;;3.10;1.30;;;8.00;99.90;;;;;;2043557;29;20286;-75
2024/02/16 03:21:17;;;;;;;2.03;1.23;;;8.00;99.90;;;;;;2045988;28;20186;-77
2024/02/16 03:22:18;;;;;;;1.90;1.30;;;8.00;99.90;;;;;;2045883;28;20184;-77
2024/02/16 03:23:19;;;;;;;1.70;1.13;;;8.10;99.90;;;;;;2044527;28;20215;-77
2024/02/16 03:24:19;;;;;;;3.00;1.10;;;8.20;99.90;;;;;;2041249;29;20381;-77
2024/02/16 03:25:20;;;;;;;1.50;1.30;;;8.10;99.90;;;;;;2051702;28;20243;-77
2024/02/16 03:26:21;;;;;;;1.75;1.30;;;8.10;99.90;;;;;;2044664;28;20251;-77
2024/02/16 03:27:22;;;;;;;2.47;1.20;;;8.10;99.90;;;;;;2045275;28;20715;-75
2024/02/16 03:28:22;;;;;;;1.43;1.20;;;8.10;99.90;;;;;;2050550;28;20314;-75
2024/02/16 03:29:23;;;;;;;1.70;1.10;;;8.10;99.90;;;;;;2054866;28;20262;-76
2024/02/16 03:30:24;;;;;;;1.93;1.20;;;8.10;99.90;;;;;;2060567;28;20261;-75
2024/02/16 03:31:25;;;;;;;2.17;1.30;;;8.10;99.90;;;;;;2054058;28;20712;-76
2024/02/16 03:32:26;;;;;;;2.07;1.20;;;8.20;99.90;;;;;;2045044;28;20266;-76
2024/02/16 03:33:26;;;;;;;2.33;1.10;;;8.10;99.90;;;;;;2045881;28;20246;-76
2024/02/16 03:34:27;;;;;;;1.73;1.30;;;8.10;99.90;;;;;;2051059;28;20322;-76
2024/02/16 03:35:28;;;;;;;2.57;1.53;;;8.10;99.90;;;;;;2050857;28;20373;-76
2024/02/16 03:36:30;;;;;;;2.97;1.23;;;8.10;99.80;;;;;;2050326;28;20293;-77
2024/02/16 03:37:31;;;;;;;2.20;1.10;;;8.10;99.90;;;;;;2054002;28;20245;-76
2024/02/16 03:38:31;;;;;;;1.20;1.10;;;8.10;99.90;;;;;;2054658;28;20234;-77
2024/02/16 03:39:32;;;;;;;4.53;1.77;;;8.10;99.90;;;;;;2046408;28;20285;-77
2024/02/16 03:40:33;;;;;;;1.80;1.30;;;8.10;99.90;;;;;;2044716;28;20238;-77
2024/02/16 03:41:34;;;;;;;2.37;1.20;;;8.20;99.90;;;;;;2037388;29;20294;-77
2024/02/16 03:42:35;;;;;;;1.48;1.35;;;8.10;99.90;;;;;;2042213;28;20285;-76
2024/02/16 03:43:36;;;;;;;1.23;1.13;;;8.10;99.90;;;;;;2055726;28;20288;-76
2024/02/16 03:44:36;;;;;;;3.17;1.30;;;8.00;99.90;;;;;;2051662;28;20778;-76
2024/02/16 03:45:37;;;;;;;2.17;1.27;;;8.00;99.90;;;;;;2039746;28;20235;-77
2024/02/16 03:46:38;;;;;;;2.63;1.20;;;8.00;99.90;;;;;;2034160;29;20234;-76
2024/02/16 03:47:41;;;;;;;2.60;1.30;;;8.00;99.90;;;;;;2042881;29;20638;-77
2024/02/16 03:48:42;;;;;;;2.05;1.20;;;8.00;99.90;;;;;;2046275;28;20597;-76
2024/02/16 03:49:43;;;;;;;2.57;1.33;;;7.90;99.90;;;;;;2050331;28;20223;-76
2024/02/16 03:50:44;;;;;;;2.30;1.30;;;8.00;99.90;;;;;;2053555;28;20563;-76
2024/02/16 03:51:45;;;;;;;1.93;1.10;;;7.90;99.90;;;;;;2044516;28;20374;-76
2024/02/16 03:52:46;;;;;;;1.45;1.20;;;7.90;99.90;;;;;;2054779;28;20222;-76
2024/02/16 03:53:47;;;;;;;3.27;1.47;;;7.80;99.90;;;;;;2042395;28;20245;-76
2024/02/16 03:54:49;;;;;;;2.03;1.20;;;7.80;99.90;;;;;;2047580;28;20302;-76
2024/02/16 03:55:50;;;;;;;1.98;1.30;;;7.80;99.90;;;;;;2046901;28;20689;-76
2024/02/16 03:56:54;;;;;;;2.13;1.40;;;7.80;99.90;;;;;;2050257;28;20214;-78
2024/02/16 03:57:55;;;;;;;1.50;1.30;;;7.70;99.90;;;;;;2044055;28;20708;-77
2024/02/16 03:58:56;;;;;;;2.23;1.70;;;7.80;99.90;;;;;;2044059;29;20234;-77
2024/02/16 03:59:57;;;;;;;3.23;1.80;;;7.70;99.90;;;;;;2044778;28;20251;-76
2024/02/16 04:00:58;;;;;;;2.27;1.97;;;7.70;99.90;;;;;;2053293;28;20743;-76
2024/02/16 04:01:59;;;;;;;2.55;2.15;;;7.70;99.90;;;;;;2045650;28;20670;-77
2024/02/16 04:02:59;;;;;;;3.77;3.17;;;7.70;99.90;;;;;;2053224;28;20233;-77
2024/02/16 04:04:00;;;;;;;6.03;4.50;;;7.70;99.90;;;;;;2044582;28;20695;-75
2024/02/16 04:05:01;;;;;;;6.57;4.60;;;7.70;99.90;;;;;;2037416;29;20215;-76
2024/02/16 04:06:04;;;;;;;4.83;3.93;;;7.60;99.90;;;;;;2053082;28;20257;-77
2024/02/16 04:07:08;;;;;;;6.72;5.10;;;7.60;99.90;;;;;;2048849;28;20559;-77
2024/02/16 04:08:09;;;;;;;6.72;5.53;;;7.60;99.90;;;;;;2049894;28;20221;-76
2024/02/16 04:09:10;;;;;;;6.60;5.00;;;7.60;99.90;;;;;;2038282;29;20253;-76
2024/02/16 04:10:10;;;;;;;7.18;6.07;;;7.60;99.90;;;;;;2053156;28;20192;-78
2024/02/16 04:11:13;;;;;;;5.90;4.57;;;7.60;99.90;;;;;;2051529;28;20185;-77
2024/02/16 04:12:14;;;;;;;5.70;3.90;;;7.70;99.90;;;;;;2039543;28;20271;-77
2024/02/16 04:13:14;;;;;;;6.72;2.92;;;7.60;99.90;;;;;;2044645;28;20175;-76
2024/02/16 04:14:15;;;;;;;2.97;2.50;;;7.60;99.90;;;;;;2040665;28;20209;-77
2024/02/16 04:15:16;;;;;;;3.60;2.00;;;7.50;99.90;;;;;;2044522;28;20267;-77
2024/02/16 04:16:17;;;;;;;3.07;2.20;;;7.50;99.90;;;;;;2051227;28;20201;-77
2024/02/16 04:17:17;;;;;;;2.93;2.30;;;7.50;99.90;;;;;;2042747;28;20231;-76
2024/02/16 04:18:18;;;;;;;2.27;2.00;;;7.40;99.90;;;;;;2055926;28;20446;-77
2024/02/16 04:19:19;;;;;;;3.45;2.47;;;7.40;99.90;;;;;;2044722;28;20254;-77
2024/02/16 04:20:20;;;;;;;3.93;2.43;;;7.50;99.90;;;;;;2036595;28;20796;-77
2024/02/16 04:21:21;;;;;;;3.10;2.17;;;7.50;99.90;;;;;;2037513;28;20242;-77
2024/02/16 04:22:22;;;;;;;4.00;2.20;;;7.50;99.90;;;;;;2037814;29;20231;-76
2024/02/16 04:23:22;;;;;;;2.73;2.10;;;7.60;99.90;;;;;;2049342;28;20235;-77
2024/02/16 04:24:23;;;;;;;4.27;2.10;;;7.60;99.90;;;;;;2055158;28;20230;-76
2024/02/16 04:25:24;;;;;;;3.00;2.33;;;7.70;99.90;;;;;;2050618;28;20232;-77
2024/02/16 04:26:24;;;;;;;2.00;1.53;;;7.70;99.90;;;;;;2038202;29;20812;-77
2024/02/16 04:27:25;;;;;;;2.17;1.53;;;7.60;99.90;;;;;;2033054;29;20238;-77
2024/02/16 04:28:26;;;;;;;3.03;1.90;;;7.70;99.90;;;;;;2041005;28;20246;-77
2024/02/16 04:29:26;;;;;;;2.47;1.60;;;7.70;99.90;;;;;;2050279;28;20729;-77
2024/02/16 04:30:27;;;;;;;2.63;2.00;;;7.70;99.90;;;;;;2041695;28;20318;-77
2024/02/16 04:31:28;;;;;;;3.17;2.57;;;7.60;99.90;;;;;;2036695;29;20661;-77
2024/02/16 04:32:28;;;;;;;3.43;2.40;;;7.70;99.90;;;;;;2048757;28;20234;-77
2024/02/16 04:33:29;;;;;;;3.10;2.20;;;7.70;99.90;;;;;;2043226;28;20235;-76
2024/02/16 04:34:30;;;;;;;3.13;2.53;;;7.60;99.90;;;;;;2057293;28;20230;-78
2024/02/16 04:35:31;;;;;;;3.43;2.20;;;7.60;99.90;;;;;;2048900;28;20305;-77
2024/02/16 04:36:31;;;;;;;2.67;2.13;;;7.60;99.90;;;;;;2045928;28;20235;-77
2024/02/16 04:37:32;;;;;;;4.60;2.10;;;7.60;99.90;;;;;;2045254;28;20474;-77
2024/02/16 04:38:33;;;;;;;2.93;2.03;;;7.60;99.90;;;;;;2045464;28;20259;-77
2024/02/16 04:39:33;;;;;;;4.17;2.37;;;7.60;99.90;;;;;;2051267;28;20231;-77
2024/02/16 04:40:37;;;;;;;4.27;1.90;;;7.60;99.90;;;;;;2054926;28;20226;-77
2024/02/16 04:41:38;;;;;;;2.38;1.73;;;7.60;99.90;;;;;;2040152;28;20257;-77
2024/02/16 04:42:40;;;;;;;2.60;1.80;;;7.50;99.90;;;;;;2032433;28;20241;-77
2024/02/16 04:43:40;;;;;;;2.05;1.73;;;7.60;99.90;;;;;;2030006;29;20231;-77
2024/02/16 04:44:41;;;;;;;2.93;1.73;;;7.60;99.90;;;;;;2040880;28;20329;-78
2024/02/16 04:45:43;;;;;;;3.00;1.80;;;7.60;99.90;;;;;;2047034;28;20375;-77
2024/02/16 04:46:44;;;;;;;2.40;1.98;;;7.60;99.90;;;;;;2050328;28;20747;-77
2024/02/16 04:47:44;;;;;;;2.93;2.30;;;7.60;99.90;;;;;;2049271;28;20227;-77
2024/02/16 04:48:45;;;;;;;2.77;1.90;;;7.60;99.90;;;;;;2041482;28;20230;-77
2024/02/16 04:49:46;;;;;;;3.87;1.70;;;7.60;99.90;;;;;;2045809;28;20223;-77
2024/02/16 04:50:46;;;;;;;1.90;1.73;;;7.60;99.90;;;;;;2043132;29;20861;-77
2024/02/16 04:51:47;;;;;;;2.77;1.40;;;7.60;99.90;;;;;;2051371;28;20218;-77
2024/02/16 04:52:48;;;;;;;1.67;1.30;;;7.60;99.90;;;;;;2058403;28;20280;-76
2024/02/16 04:53:49;;;;;;;1.30;1.20;;;7.60;99.90;;;;;;2044736;28;20237;-77
2024/02/16 04:54:49;;;;;;;1.90;1.60;;;7.50;99.90;;;;;;2044873;28;20728;-77
2024/02/16 04:55:50;;;;;;;4.70;2.00;;;7.50;99.90;;;;;;2051781;28;20226;-77
2024/02/16 04:56:51;;;;;;;2.77;1.67;;;7.50;99.90;;;;;;2056924;28;20234;-78
2024/02/16 04:57:51;;;;;;;1.93;1.43;;;7.60;99.90;;;;;;2053130;28;20253;-77
2024/02/16 04:58:52;;;;;;;2.87;1.43;;;7.50;99.90;;;;;;2053286;28;20280;-77
2024/02/16 04:59:53;;;;;;;2.10;1.47;;;7.40;99.90;;;;;;2046750;28;20230;-77
2024/02/16 05:00:53;;;;;;;1.60;1.13;;;7.50;99.90;;;;;;2049300;28;20323;-77
2024/02/16 05:01:54;;;;;;;1.83;1.47;;;7.50;99.90;;;;;;2053943;28;20714;-77
2024/02/16 05:02:56;;;;;;;89.20;53.50;;;7.50;99.90;;;;;;2045939;28;20258;-77
2024/02/16 05:03:59;;;;;;;33.77;20.23;;;7.40;99.90;;;;;;2044826;28;20230;-76
2024/02/16 05:05:00;;;;;;;5.18;2.85;;;7.40;99.90;;;;;;2045078;28;20275;-76
2024/02/16 05:06:01;;;;;;;3.87;1.57;;;7.40;99.90;;;;;;2036775;28;20220;-76
2024/02/16 05:07:01;;;;;;;2.73;1.70;;;7.30;99.90;;;;;;2037699;29;20207;-77
2024/02/16 05:08:02;;;;;;;2.97;2.00;;;7.30;99.90;;;;;;2056365;28;20257;-76
2024/02/16 05:09:03;;;;;;;2.47;1.70;;;7.30;99.90;;;;;;2037457;28;20184;-76
2024/02/16 05:10:08;;;;;;;4.00;1.77;;;7.30;99.90;;;;;;2037704;29;20208;-76
2024/02/16 05:11:09;;;;;;;10.65;7.97;;;7.30;99.90;;;;;;2039162;28;20240;-76
2024/02/16 05:12:10;;;;;;;6.70;5.13;;;7.40;99.90;;;;;;2045325;28;20175;-77
2024/02/16 05:13:11;;;;;;;7.70;4.80;;;7.30;99.90;;;;;;2052831;28;20276;-77
2024/02/16 05:14:12;;;;;;;7.18;4.95;;;7.40;99.90;;;;;;2045255;28;20186;-76
2024/02/16 05:15:13;;;;;;;3.70;2.90;;;7.30;99.90;;;;;;2043868;28;20206;-76
2024/02/16 05:16:14;;;;;;;6.70;4.33;;;7.20;99.90;;;;;;2042936;28;20243;-77
2024/02/16 05:17:14;;;;;;;5.67;4.43;;;7.20;99.90;;;;;;2045558;28;20684;-77
2024/02/16 05:18:15;;;;;;;4.40;3.40;;;7.20;99.90;;;;;;2040393;29;20235;-76
2024/02/16 05:19:16;;;;;;;4.10;3.15;;;7.20;99.90;;;;;;2048497;28;20188;-77
2024/02/16 05:20:19;;;;;;;5.33;3.00;;;7.20;99.90;;;;;;2044978;28;20184;-77
2024/02/16 05:21:20;;;;;;;4.70;3.25;;;7.30;99.90;;;;;;2047390;28;20232;-77
2024/02/16 05:22:21;;;;;;;4.50;2.77;;;7.30;99.90;;;;;;2036380;29;20305;-76